F\v Arvorig — FGUI — position and weather

sailwx.info

Track history (hours):
 
Tides and Currents Weather Stations Pressure Air Temp Water Temp Dewpoint Dewpoint Depression Visibility Wind Speed Wind Dir Waves Ship Positions

F\v Arvorig

Last reported at 2018-Feb-22 16:20 UTC. Time now 2018-Feb-23 06:48 UTC.
Position N 47°47' W 004°17'.

Length 17 m; draft 4 m.

Type: Fishing. MMSI: 227430000.

Date/timePositionNaut miles runAvg speedWind from/ knotsBaromVisibWave heightAir tempDewpointWater temp
2018-Feb-22 16:20N 47°47' W 004°17'3 8.3
2018-Feb-22 15:59N 47°46' W 004°21'4 8.0
2018-Feb-22 15:27N 47°46' W 004°27'5 8.5
2018-Feb-22 14:55N 47°46' W 004°34'4 8.6
2018-Feb-22 14:28N 47°45' W 004°40'4 8.3
2018-Feb-22 13:59N 47°45' W 004°46'4 8.1
2018-Feb-22 13:31N 47°45' W 004°52'5 8.2
2018-Feb-22 12:58N 47°45' W 004°58'4 8.2
2018-Feb-22 12:28N 47°45' W 005°04'1 2.3
2018-Feb-22 12:00N 47°45' W 005°06'2 2.8
2018-Feb-22 11:26N 47°45' W 005°08'1 2.6
2018-Feb-22 10:57N 47°44' W 005°10'6 1.9
2018-Feb-22 07:30N 47°37' W 005°11'  
2018-Feb-18 15:57N 47°47' W 004°17'4 8.4
2018-Feb-18 15:30N 47°45' W 004°22'5 8.6
2018-Feb-18 14:57N 47°41' W 004°27'30 0.7
2018-Feb-16 18:35N 47°38' W 005°11'0 4.1
2018-Feb-16 18:28N 47°38' W 005°11'2 2.7
2018-Feb-16 17:52N 47°39' W 005°13'1 2.0
2018-Feb-16 17:21N 47°40' W 005°12'1 3.1
2018-Feb-16 16:59N 47°41' W 005°12'2 3.0
2018-Feb-16 16:21N 47°43' W 005°13'1 2.7
2018-Feb-16 15:54N 47°44' W 005°14'9 1.4
2018-Feb-16 09:45N 47°36' W 005°19'1 3.2
2018-Feb-16 09:25N 47°37' W 005°19'5 2.0
2018-Feb-16 06:52N 47°38' W 005°11'2 2.4
2018-Feb-16 06:15N 47°37' W 005°09'3 0.3
2018-Feb-15 21:46N 47°38' W 005°13'5 0.7
2018-Feb-15 15:10N 47°42' W 005°17'1 2.6
2018-Feb-15 14:51N 47°43' W 005°17'1 2.7
2018-Feb-15 14:26N 47°44' W 005°17'34 3.6
2018-Feb-15 04:54N 47°45' W 004°26'3 6.9
2018-Feb-15 04:30N 47°46' W 004°22'4 0.1
2018-Feb-13 15:25N 47°48' W 004°17'  
Track history (hours):
 
Tides and Currents Weather Stations Pressure Air Temp Water Temp Dewpoint Dewpoint Depression Visibility Wind Speed Wind Dir Waves Ship Positions

F\v Arvorig

Last reported at 2018-Feb-22 16:20 UTC. Time now 2018-Feb-23 06:48 UTC.
Position N 47°47' W 004°17'.

Length 17 m; draft 4 m.

Type: Fishing. MMSI: 227430000.

Date/timePositionNaut miles runAvg speedWind from/ knotsBaromVisibWave heightAir tempDewpointWater temp
2018-Feb-22 16:20N 47°47' W 004°17'3 8.3
2018-Feb-22 15:59N 47°46' W 004°21'4 8.0
2018-Feb-22 15:27N 47°46' W 004°27'5 8.5
2018-Feb-22 14:55N 47°46' W 004°34'4 8.6
2018-Feb-22 14:28N 47°45' W 004°40'4 8.3
2018-Feb-22 13:59N 47°45' W 004°46'4 8.1
2018-Feb-22 13:31N 47°45' W 004°52'5 8.2
2018-Feb-22 12:58N 47°45' W 004°58'4 8.2
2018-Feb-22 12:28N 47°45' W 005°04'1 2.3
2018-Feb-22 12:00N 47°45' W 005°06'2 2.8
2018-Feb-22 11:26N 47°45' W 005°08'1 2.6
2018-Feb-22 10:57N 47°44' W 005°10'6 1.9
2018-Feb-22 07:30N 47°37' W 005°11'  
2018-Feb-18 15:57N 47°47' W 004°17'4 8.4
2018-Feb-18 15:30N 47°45' W 004°22'5 8.6
2018-Feb-18 14:57N 47°41' W 004°27'30 0.7
2018-Feb-16 18:35N 47°38' W 005°11'0 4.1
2018-Feb-16 18:28N 47°38' W 005°11'2 2.7
2018-Feb-16 17:52N 47°39' W 005°13'1 2.0
2018-Feb-16 17:21N 47°40' W 005°12'1 3.1
2018-Feb-16 16:59N 47°41' W 005°12'2 3.0
2018-Feb-16 16:21N 47°43' W 005°13'1 2.7
2018-Feb-16 15:54N 47°44' W 005°14'9 1.4
2018-Feb-16 09:45N 47°36' W 005°19'1 3.2
2018-Feb-16 09:25N 47°37' W 005°19'5 2.0
2018-Feb-16 06:52N 47°38' W 005°11'2 2.4
2018-Feb-16 06:15N 47°37' W 005°09'3 0.3
2018-Feb-15 21:46N 47°38' W 005°13'5 0.7
2018-Feb-15 15:10N 47°42' W 005°17'1 2.6
2018-Feb-15 14:51N 47°43' W 005°17'1 2.7
2018-Feb-15 14:26N 47°44' W 005°17'34 3.6
2018-Feb-15 04:54N 47°45' W 004°26'3 6.9
2018-Feb-15 04:30N 47°46' W 004°22'4 0.1
2018-Feb-13 15:25N 47°48' W 004°17'  

Dump ship's entire track history